Time;durP1;ratioP1;P1;durP2;ratioP2;P2;SDS_P1;SDS_P2;PMS_P1;PMS_P2;Temp;Humidity;BMP_temperature;BMP_pressure;BME280_temperature;BME280_humidity;BME280_pressure;Samples;Min_cycle;Max_cycle;Signal;HPM_P1;HPM_P2
2023/05/08 00:00:56;;;;;;;;;;;15.70;99.90;;;;;;5071847;28;20406;-66
2023/05/08 00:03:23;;;;;;;;;;;15.70;99.90;;;;;;5066153;28;19974;-67
2023/05/08 00:05:54;;;;;;;;;;;15.70;99.90;;;;;;5058967;28;19931;-66
2023/05/08 00:08:20;;;;;;;;;;;15.60;99.90;;;;;;5055702;28;19956;-67
2023/05/08 00:10:47;;;;;;;;;;;15.60;99.90;;;;;;5080624;28;20038;-66
2023/05/08 00:13:14;;;;;;;;;;;15.60;99.90;;;;;;5071858;28;19932;-67
2023/05/08 00:15:41;;;;;;;;;;;15.60;99.90;;;;;;5071961;28;19932;-66
2023/05/08 00:18:08;;;;;;;;;;;;;;;;;;5073614;28;19981;-67
2023/05/08 00:20:35;;;;;;;;;;;15.60;99.90;;;;;;5080237;28;19981;-67
2023/05/08 00:23:03;;;;;;;;;;;15.50;99.90;;;;;;5087286;28;19932;-67
2023/05/08 00:25:30;;;;;;;;;;;15.50;99.90;;;;;;5071651;28;19924;-67
2023/05/08 00:27:57;;;;;;;;;;;15.50;99.90;;;;;;5079801;28;19964;-67
2023/05/08 00:30:24;;;;;;;;;;;15.40;99.90;;;;;;5076359;28;19932;-67
2023/05/08 00:32:51;;;;;;;;;;;15.30;99.90;;;;;;5071432;28;19929;-66
2023/05/08 00:35:18;;;;;;;;;;;15.30;99.90;;;;;;5071412;28;19924;-67
2023/05/08 00:37:45;;;;;;;;;;;15.20;99.90;;;;;;5071113;28;19932;-66
2023/05/08 00:40:13;;;;;;;;;;;15.20;99.90;;;;;;5071709;28;19924;-67
2023/05/08 00:42:40;;;;;;;;;;;15.10;99.90;;;;;;5063552;28;19925;-67
2023/05/08 00:45:07;;;;;;;;;;;15.10;99.90;;;;;;5087463;28;19924;-66
2023/05/08 00:47:34;;;;;;;;;;;15.10;99.90;;;;;;5070113;28;19949;-67
2023/05/08 00:50:01;;;;;;;;;;;15.00;99.90;;;;;;5071418;28;19931;-67
2023/05/08 00:52:28;;;;;;;;;;;;;;;;;;5060764;28;19931;-66
2023/05/08 00:54:55;;;;;;;;;;;15.00;99.90;;;;;;5070746;28;20401;-67
2023/05/08 00:57:24;;;;;;;;;;;14.90;99.90;;;;;;5063069;28;19924;-66
2023/05/08 00:59:51;;;;;;;;;;;;;;;;;;5070859;28;19931;-66
2023/05/08 01:02:19;;;;;;;;;;;;;;;;;;5062562;28;19924;-67
2023/05/08 01:04:48;;;;;;;;;;;14.90;99.90;;;;;;5057936;28;19968;-65
2023/05/08 01:07:14;;;;;;;;;;;14.90;99.90;;;;;;5065089;28;19944;-66
2023/05/08 01:09:41;;;;;;;;;;;14.90;99.90;;;;;;5070543;28;19947;-66
2023/05/08 01:12:14;;;;;;;;;;;14.90;99.90;;;;;;5068189;28;19932;-66
2023/05/08 01:15:00;;;;;;;;;;;14.80;99.90;;;;;;5071038;28;20016;-66
2023/05/08 01:17:32;;;;;;;;;;;14.80;99.90;;;;;;5069935;28;20307;-66
2023/05/08 01:20:04;;;;;;;;;;;14.80;99.90;;;;;;5070406;28;19924;-66
2023/05/08 01:22:39;;;;;;;;;;;14.90;99.90;;;;;;5062482;28;20363;-67
2023/05/08 01:25:23;;;;;;;;;;;15.00;99.90;;;;;;5086781;28;20023;-67
2023/05/08 01:28:01;;;;;;;;;;;15.00;99.90;;;;;;5063579;28;19928;-66
2023/05/08 01:30:47;;;;;;;;;;;15.00;99.90;;;;;;5065517;28;19946;-66
2023/05/08 01:33:19;;;;;;;;;;;15.00;99.90;;;;;;5063214;28;20328;-66
2023/05/08 01:35:49;;;;;;;;;;;15.00;99.90;;;;;;5070764;28;19925;-67
2023/05/08 01:38:20;;;;;;;;;;;15.00;99.90;;;;;;5079689;28;19940;-66
2023/05/08 01:40:53;;;;;;;;;;;15.00;99.90;;;;;;5072861;28;19924;-66
2023/05/08 01:43:25;;;;;;;;;;;15.00;99.90;;;;;;5069560;28;19925;-66
2023/05/08 01:45:52;;;;;;;;;;;15.00;99.90;;;;;;5067681;28;19924;-66
2023/05/08 01:48:24;;;;;;;;;;;15.10;99.90;;;;;;5075558;28;20410;-66
2023/05/08 01:50:55;;;;;;;;;;;15.10;99.90;;;;;;5069600;28;19924;-66
2023/05/08 01:53:24;;;;;;;;;;;15.10;99.90;;;;;;5068749;28;19966;-67
2023/05/08 01:55:53;;;;;;;;;;;15.10;99.90;;;;;;5070044;28;20359;-67
2023/05/08 01:58:20;;;;;;;;;;;15.10;99.90;;;;;;5057232;28;19924;-67
2023/05/08 02:00:48;;;;;;;;;;;15.10;99.90;;;;;;5056170;28;19978;-67
2023/05/08 02:03:16;;;;;;;;;;;15.10;99.90;;;;;;5070939;28;19935;-67
2023/05/08 02:05:45;;;;;;;;;;;15.10;99.90;;;;;;5068822;28;19978;-66
2023/05/08 02:08:13;;;;;;;;;;;15.20;99.90;;;;;;5062527;28;19925;-66
2023/05/08 02:10:41;;;;;;;;;;;15.20;99.90;;;;;;5071998;28;19931;-66
2023/05/08 02:13:08;;;;;;;;;;;15.20;99.90;;;;;;5059700;28;19928;-66
2023/05/08 02:15:36;;;;;;;;;;;15.20;99.90;;;;;;5063165;28;19937;-67
2023/05/08 02:18:03;;;;;;;;;;;15.30;99.90;;;;;;5066980;28;19925;-67
2023/05/08 02:20:31;;;;;;;;;;;15.20;99.90;;;;;;5072390;28;19924;-67
2023/05/08 02:23:00;;;;;;;;;;;15.30;99.90;;;;;;5072324;28;19928;-66
2023/05/08 02:25:29;;;;;;;;;;;15.20;99.90;;;;;;5071590;28;19963;-66
2023/05/08 02:27:56;;;;;;;;;;;15.10;99.90;;;;;;5072295;28;19947;-66
2023/05/08 02:30:24;;;;;;;;;;;15.10;99.90;;;;;;5067832;28;19924;-65
2023/05/08 02:32:52;;;;;;;;;;;15.10;99.90;;;;;;5066284;28;19924;-65
2023/05/08 02:35:21;;;;;;;;;;;15.10;99.90;;;;;;5069934;28;20392;-66
2023/05/08 02:37:50;;;;;;;;;;;15.10;99.90;;;;;;5066759;28;19931;-65
2023/05/08 02:40:18;;;;;;;;;;;15.00;99.90;;;;;;5069766;28;19924;-66
2023/05/08 02:42:46;;;;;;;;;;;15.00;99.90;;;;;;5072196;28;19960;-66
2023/05/08 02:45:13;;;;;;;;;;;15.00;99.90;;;;;;5072369;28;19925;-67
2023/05/08 02:47:43;;;;;;;;;;;15.00;99.90;;;;;;5071880;28;19924;-66
2023/05/08 02:50:15;;;;;;;;;;;15.00;99.90;;;;;;5073446;28;19932;-66
2023/05/08 02:52:44;;;;;;;;;;;15.10;99.90;;;;;;5089442;28;19924;-66
2023/05/08 02:55:14;;;;;;;;;;;15.10;99.90;;;;;;5070469;28;20023;-66
2023/05/08 02:57:46;;;;;;;;;;;15.10;99.90;;;;;;5059139;28;19932;-67
2023/05/08 03:00:15;;;;;;;;;;;15.10;99.90;;;;;;5073390;28;19978;-66
2023/05/08 03:02:43;;;;;;;;;;;15.10;99.90;;;;;;5075782;28;19999;-66
2023/05/08 03:05:13;;;;;;;;;;;15.10;99.90;;;;;;5072015;28;20342;-66
2023/05/08 03:07:40;;;;;;;;;;;15.10;99.90;;;;;;5065264;28;19985;-67
2023/05/08 03:10:11;;;;;;;;;;;15.10;99.90;;;;;;5061749;28;20415;-68
2023/05/08 03:12:40;;;;;;;;;;;15.00;99.90;;;;;;5062102;28;19978;-67
2023/05/08 03:15:12;;;;;;;;;;;14.90;99.90;;;;;;5067135;28;19935;-67
2023/05/08 03:17:39;;;;;;;;;;;14.80;99.90;;;;;;5069609;28;19924;-68
2023/05/08 03:20:08;;;;;;;;;;;14.70;99.90;;;;;;5066569;28;20394;-67
2023/05/08 03:22:36;;;;;;;;;;;14.60;99.90;;;;;;5063800;28;20019;-66
2023/05/08 03:25:04;;;;;;;;;;;14.60;99.90;;;;;;5065516;28;19979;-67
2023/05/08 03:27:33;;;;;;;;;;;14.50;99.90;;;;;;5070532;28;20294;-67
2023/05/08 03:30:01;;;;;;;;;;;14.50;99.90;;;;;;5077139;28;20015;-66
2023/05/08 03:32:31;;;;;;;;;;;14.40;99.90;;;;;;5064033;28;19956;-67
2023/05/08 03:34:59;;;;;;;;;;;14.40;99.90;;;;;;5066109;28;19931;-67
2023/05/08 03:37:27;;;;;;;;;;;14.50;99.90;;;;;;5067047;28;19925;-67
2023/05/08 03:39:54;;;;;;;;;;;14.50;99.90;;;;;;5060487;28;20358;-66
2023/05/08 03:42:21;;;;;;;;;;;14.70;99.90;;;;;;5072706;28;19931;-66
2023/05/08 03:44:50;;;;;;;;;;;14.60;99.90;;;;;;5068959;28;19956;-66
2023/05/08 03:47:17;;;;;;;;;;;14.70;99.90;;;;;;5086688;28;20395;-67
2023/05/08 03:49:47;;;;;;;;;;;14.70;99.90;;;;;;5063552;28;20016;-66
2023/05/08 03:52:14;;;;;;;;;;;14.70;99.90;;;;;;5064168;28;19924;-67
2023/05/08 03:54:41;;;;;;;;;;;14.60;99.90;;;;;;5063996;28;20023;-67
2023/05/08 03:57:09;;;;;;;;;;;14.60;99.90;;;;;;5068659;28;19924;-67
2023/05/08 03:59:42;;;;;;;;;;;14.60;99.90;;;;;;5070184;28;20383;-67
2023/05/08 04:02:09;;;;;;;;;;;;;;;;;;5087077;28;19932;-67
2023/05/08 04:04:37;;;;;;;;;;;;;;;;;;5066100;28;20332;-67
2023/05/08 04:07:06;;;;;;;;;;;14.40;99.90;;;;;;5067556;28;19948;-67
2023/05/08 04:09:44;;;;;;;;;;;14.50;99.90;;;;;;5067620;28;20398;-67
2023/05/08 04:12:14;;;;;;;;;;;14.40;99.90;;;;;;5072020;28;19924;-67
2023/05/08 04:14:44;;;;;;;;;;;14.40;99.90;;;;;;5073880;28;19925;-67
2023/05/08 04:17:14;;;;;;;;;;;14.50;99.90;;;;;;5084874;28;19928;-72
2023/05/08 04:19:45;;;;;;;;;;;14.40;99.90;;;;;;5082865;28;19924;-67
2023/05/08 04:22:14;;;;;;;;;;;14.60;99.90;;;;;;5062370;28;19929;-66
2023/05/08 04:24:43;;;;;;;;;;;14.60;99.90;;;;;;5061101;28;19925;-67
2023/05/08 04:27:10;;;;;;;;;;;14.70;99.90;;;;;;5065682;28;19925;-68
2023/05/08 04:29:37;;;;;;;;;;;14.70;99.90;;;;;;5079988;28;19928;-67
2023/05/08 04:32:05;;;;;;;;;;;14.70;99.90;;;;;;5078853;28;19924;-66
2023/05/08 04:34:33;;;;;;;;;;;14.80;99.90;;;;;;5068592;28;19970;-67
2023/05/08 04:37:00;;;;;;;;;;;14.70;99.90;;;;;;5061630;28;19942;-66
2023/05/08 04:39:28;;;;;;;;;;;14.80;99.90;;;;;;5070071;28;19928;-66
2023/05/08 04:42:01;;;;;;;;;;;14.90;99.90;;;;;;5066902;28;19925;-66
2023/05/08 04:44:29;;;;;;;;;;;14.90;99.90;;;;;;5086826;28;19956;-67
2023/05/08 04:46:55;;;;;;;;;;;15.00;99.90;;;;;;5071087;28;19924;-67
2023/05/08 04:49:22;;;;;;;;;;;15.00;99.90;;;;;;5070115;28;19924;-69
2023/05/08 04:51:49;;;;;;;;;;;15.10;99.90;;;;;;5060863;28;19984;-68
2023/05/08 04:54:16;;;;;;;;;;;15.10;99.90;;;;;;5063505;28;19978;-68
2023/05/08 04:56:45;;;;;;;;;;;15.10;99.90;;;;;;5069719;28;20020;-67
2023/05/08 04:59:12;;;;;;;;;;;15.00;99.90;;;;;;5070124;28;20028;-68
2023/05/08 05:01:39;;;;;;;;;;;15.00;99.90;;;;;;5084253;28;19924;-67
2023/05/08 05:04:06;;;;;;;;;;;15.10;99.90;;;;;;5072908;28;19925;-67
2023/05/08 05:06:33;;;;;;;;;;;15.10;99.90;;;;;;5055235;28;19925;-66
2023/05/08 05:09:00;;;;;;;;;;;15.10;99.90;;;;;;5064571;28;20398;-67
2023/05/08 05:11:27;;;;;;;;;;;15.20;99.90;;;;;;5063157;28;19925;-67
2023/05/08 05:13:55;;;;;;;;;;;15.30;99.90;;;;;;5069203;28;19925;-67
2023/05/08 05:16:23;;;;;;;;;;;15.30;99.90;;;;;;5068936;28;19932;-67
2023/05/08 05:18:49;;;;;;;;;;;15.40;99.90;;;;;;5062426;28;19925;-67
2023/05/08 05:21:16;;;;;;;;;;;15.40;99.90;;;;;;5064459;28;19978;-67
2023/05/08 05:23:43;;;;;;;;;;;15.50;99.90;;;;;;5061831;28;20391;-68
2023/05/08 05:26:10;;;;;;;;;;;15.50;99.90;;;;;;5063962;28;19954;-66
2023/05/08 05:28:37;;;;;;;;;;;15.50;99.90;;;;;;5061511;28;19932;-68
2023/05/08 05:31:06;;;;;;;;;;;15.50;99.90;;;;;;5067000;28;19956;-69
2023/05/08 05:33:32;;;;;;;;;;;15.60;99.90;;;;;;5069442;28;19972;-68
2023/05/08 05:36:00;;;;;;;;;;;15.60;99.90;;;;;;5061660;28;19925;-68
2023/05/08 05:38:27;;;;;;;;;;;15.70;99.90;;;;;;5069301;28;20019;-68
2023/05/08 05:40:53;;;;;;;;;;;15.70;99.90;;;;;;5059691;28;20331;-68
2023/05/08 05:43:20;;;;;;;;;;;15.80;99.90;;;;;;5066037;28;20023;-67
2023/05/08 05:45:47;;;;;;;;;;;15.80;99.90;;;;;;5083729;28;19925;-68
2023/05/08 05:48:15;;;;;;;;;;;15.90;99.90;;;;;;5062517;28;19928;-67
2023/05/08 05:50:43;;;;;;;;;;;15.90;99.90;;;;;;5068696;28;19959;-68
2023/05/08 05:53:10;;;;;;;;;;;16.00;99.90;;;;;;5062782;28;20020;-67
2023/05/08 05:55:37;;;;;;;;;;;16.00;99.90;;;;;;5068904;28;19924;-68
2023/05/08 05:58:04;;;;;;;;;;;15.90;99.90;;;;;;5063032;28;19932;-68
2023/05/08 06:00:31;;;;;;;;;;;15.90;99.90;;;;;;5085108;28;19925;-68
2023/05/08 06:03:01;;;;;;;;;;;16.00;99.90;;;;;;5077824;28;20357;-68
2023/05/08 06:05:29;;;;;;;;;;;16.10;99.90;;;;;;5086303;28;19924;-67
2023/05/08 06:07:58;;;;;;;;;;;16.10;99.90;;;;;;5061938;28;20391;-68
2023/05/08 06:10:25;;;;;;;;;;;16.20;99.90;;;;;;5061722;28;20366;-68
2023/05/08 06:12:53;;;;;;;;;;;16.20;99.90;;;;;;5057697;28;19925;-68
2023/05/08 06:15:20;;;;;;;;;;;16.20;99.90;;;;;;5068360;28;20019;-68
2023/05/08 06:17:48;;;;;;;;;;;16.30;99.90;;;;;;5066925;28;19924;-68
2023/05/08 06:20:15;;;;;;;;;;;16.40;99.90;;;;;;5079441;28;19964;-68
2023/05/08 06:22:43;;;;;;;;;;;16.30;99.90;;;;;;5064593;28;19932;-68
2023/05/08 06:25:10;;;;;;;;;;;16.40;99.90;;;;;;5061853;28;19924;-68
2023/05/08 06:27:37;;;;;;;;;;;16.40;99.90;;;;;;5056365;28;19925;-68
2023/05/08 06:30:06;;;;;;;;;;;16.40;99.90;;;;;;5060702;28;20366;-68
2023/05/08 06:32:33;;;;;;;;;;;16.50;99.90;;;;;;5065523;28;19928;-68
2023/05/08 06:35:00;;;;;;;;;;;16.50;99.90;;;;;;5060845;28;19928;-68
2023/05/08 06:37:26;;;;;;;;;;;16.50;99.90;;;;;;5066950;28;19925;-69
2023/05/08 06:39:55;;;;;;;;;;;16.60;99.90;;;;;;5065853;28;19947;-68
2023/05/08 06:42:21;;;;;;;;;;;16.70;99.90;;;;;;5064474;28;19974;-68
2023/05/08 06:44:49;;;;;;;;;;;16.70;99.90;;;;;;5064738;28;19982;-68
2023/05/08 06:47:16;;;;;;;;;;;16.80;99.90;;;;;;5068386;28;20012;-68
2023/05/08 06:49:43;;;;;;;;;;;16.90;99.90;;;;;;5064091;28;19939;-68
2023/05/08 06:52:09;;;;;;;;;;;16.90;99.90;;;;;;5060445;28;19950;-67
2023/05/08 06:54:36;;;;;;;;;;;16.90;99.90;;;;;;5065298;28;19932;-68
2023/05/08 06:57:05;;;;;;;;;;;16.90;99.90;;;;;;5061290;28;19960;-68
2023/05/08 06:59:31;;;;;;;;;;;17.00;99.90;;;;;;5083668;28;19987;-68
2023/05/08 07:01:58;;;;;;;;;;;17.10;99.90;;;;;;5069629;28;19978;-68
2023/05/08 07:04:25;;;;;;;;;;;17.10;99.90;;;;;;5062284;28;19924;-68
2023/05/08 07:06:52;;;;;;;;;;;17.10;99.90;;;;;;5065119;28;19932;-68
2023/05/08 07:09:18;;;;;;;;;;;17.20;99.90;;;;;;5066440;28;19925;-69
2023/05/08 07:11:45;;;;;;;;;;;17.30;99.90;;;;;;5063728;28;19924;-68
2023/05/08 07:14:13;;;;;;;;;;;17.40;99.90;;;;;;5063815;28;19933;-68
2023/05/08 07:16:40;;;;;;;;;;;17.40;99.90;;;;;;5068733;28;19975;-69
2023/05/08 07:19:07;;;;;;;;;;;17.60;99.90;;;;;;5071333;28;19925;-68
2023/05/08 07:21:34;;;;;;;;;;;17.70;99.90;;;;;;5068068;28;19936;-69
2023/05/08 07:24:01;;;;;;;;;;;17.90;99.90;;;;;;5063466;28;19925;-68
2023/05/08 07:26:27;;;;;;;;;;;17.90;99.90;;;;;;5071708;28;19930;-69
2023/05/08 07:28:54;;;;;;;;;;;18.00;99.90;;;;;;5066980;28;19931;-68
2023/05/08 07:31:22;;;;;;;;;;;18.10;99.90;;;;;;5079085;28;19932;-69
2023/05/08 07:33:49;;;;;;;;;;;18.10;99.90;;;;;;5064660;28;19929;-68
2023/05/08 07:36:16;;;;;;;;;;;18.20;99.90;;;;;;5061689;28;19932;-68
2023/05/08 07:38:43;;;;;;;;;;;18.20;99.90;;;;;;5076301;28;19940;-68
2023/05/08 07:41:09;;;;;;;;;;;18.20;99.90;;;;;;5067837;28;19928;-69
2023/05/08 07:43:37;;;;;;;;;;;18.30;99.90;;;;;;5067951;28;20392;-67
2023/05/08 07:46:03;;;;;;;;;;;18.40;99.90;;;;;;5060663;28;19924;-68
2023/05/08 07:48:31;;;;;;;;;;;18.50;99.90;;;;;;5068415;28;19924;-69
2023/05/08 07:50:58;;;;;;;;;;;18.60;99.90;;;;;;5071255;28;19932;-69
2023/05/08 07:53:25;;;;;;;;;;;18.70;99.90;;;;;;5062924;28;19924;-69
2023/05/08 07:55:52;;;;;;;;;;;18.80;99.90;;;;;;5063720;28;19971;-68
2023/05/08 07:58:18;;;;;;;;;;;18.90;99.90;;;;;;5065306;28;20040;-68
2023/05/08 08:00:45;;;;;;;;;;;19.00;99.90;;;;;;5066310;28;19977;-69
2023/05/08 08:03:12;;;;;;;;;;;19.10;99.90;;;;;;5071227;28;19939;-68
2023/05/08 08:05:40;;;;;;;;;;;19.10;99.90;;;;;;5066426;28;20415;-68
2023/05/08 08:08:07;;;;;;;;;;;19.30;99.90;;;;;;5070939;28;20439;-68
2023/05/08 08:10:34;;;;;;;;;;;19.30;99.90;;;;;;5065765;28;19951;-67
2023/05/08 08:13:01;;;;;;;;;;;19.30;99.90;;;;;;5066587;28;19928;-68
2023/05/08 08:15:28;;;;;;;;;;;19.50;99.90;;;;;;5068655;28;19954;-67
2023/05/08 08:17:55;;;;;;;;;;;19.50;99.90;;;;;;5061917;28;19978;-68
2023/05/08 08:20:21;;;;;;;;;;;19.80;99.90;;;;;;5071393;28;20342;-67
2023/05/08 08:22:50;;;;;;;;;;;20.10;99.90;;;;;;5062819;28;19924;-67
2023/05/08 08:25:17;;;;;;;;;;;20.20;99.90;;;;;;5071246;28;19986;-68
2023/05/08 08:27:43;;;;;;;;;;;20.20;99.90;;;;;;5063000;28;20453;-68
2023/05/08 08:30:10;;;;;;;;;;;20.50;99.90;;;;;;5058840;28;19982;-68
2023/05/08 08:32:37;;;;;;;;;;;20.80;99.90;;;;;;5065959;28;19936;-68
2023/05/08 08:35:04;;;;;;;;;;;20.90;99.90;;;;;;5066162;28;19929;-68
2023/05/08 08:37:31;;;;;;;;;;;20.90;99.90;;;;;;5063304;28;20054;-67
2023/05/08 08:40:00;;;;;;;;;;;20.70;99.90;;;;;;5065182;28;19929;-68
2023/05/08 08:42:27;;;;;;;;;;;20.90;99.90;;;;;;5060469;28;19924;-68
2023/05/08 08:44:55;;;;;;;;;;;20.90;99.90;;;;;;5085303;28;19925;-69
2023/05/08 08:47:23;;;;;;;;;;;20.80;99.90;;;;;;5077997;28;20396;-68
2023/05/08 08:49:51;;;;;;;;;;;20.90;99.90;;;;;;5069419;28;20023;-68
2023/05/08 08:52:22;;;;;;;;;;;20.70;99.90;;;;;;5064318;28;19970;-66
2023/05/08 08:54:50;;;;;;;;;;;20.60;99.90;;;;;;5061286;28;19932;-68
2023/05/08 08:57:18;;;;;;;;;;;20.50;99.90;;;;;;5059431;28;19925;-68
2023/05/08 08:59:45;;;;;;;;;;;20.50;99.90;;;;;;5068806;28;19934;-68
2023/05/08 09:02:16;;;;;;;;;;;20.40;99.90;;;;;;5069607;28;19966;-68
2023/05/08 09:04:43;;;;;;;;;;;20.50;99.90;;;;;;5059859;28;19924;-68
2023/05/08 09:07:11;;;;;;;;;;;20.40;99.90;;;;;;5066203;28;20414;-69
2023/05/08 09:09:39;;;;;;;;;;;20.50;99.90;;;;;;5062343;28;19977;-68
2023/05/08 09:12:07;;;;;;;;;;;20.60;99.90;;;;;;5068729;28;20023;-69
2023/05/08 09:14:35;;;;;;;;;;;20.70;99.90;;;;;;5074162;28;19924;-69
2023/05/08 09:17:02;;;;;;;;;;;20.60;99.90;;;;;;5078427;28;19928;-68
2023/05/08 09:19:28;;;;;;;;;;;20.70;99.90;;;;;;5074519;28;20023;-69
2023/05/08 09:21:58;;;;;;;;;;;20.70;99.90;;;;;;5078676;28;19932;-69
2023/05/08 09:24:26;;;;;;;;;;;20.90;99.90;;;;;;5066069;28;19929;-69
2023/05/08 09:26:53;;;;;;;;;;;20.80;99.90;;;;;;5059252;28;19925;-69
2023/05/08 09:29:21;;;;;;;;;;;20.90;99.90;;;;;;5064797;28;19924;-70
2023/05/08 09:31:50;;;;;;;;;;;20.90;99.90;;;;;;5065725;28;19999;-69
2023/05/08 09:34:25;;;;;;;;;;;21.10;99.90;;;;;;5077558;28;19924;-69
2023/05/08 09:36:52;;;;;;;;;;;21.20;99.90;;;;;;5063887;28;20454;-69
2023/05/08 09:39:22;;;;;;;;;;;21.40;99.90;;;;;;5057822;28;19931;-69
2023/05/08 09:41:58;;;;;;;;;;;21.70;99.90;;;;;;5063077;28;19932;-69
2023/05/08 09:44:25;;;;;;;;;;;21.80;99.90;;;;;;5081778;28;20020;-69
2023/05/08 09:47:09;;;;;;;;;;;22.10;99.90;;;;;;5065626;28;19925;-69
2023/05/08 09:49:36;;;;;;;;;;;22.20;99.90;;;;;;5060887;28;19925;-69
2023/05/08 09:52:03;;;;;;;;;;;22.40;99.90;;;;;;5056165;28;19928;-69
2023/05/08 09:54:30;;;;;;;;;;;22.70;99.90;;;;;;5059771;28;20346;-69
2023/05/08 09:56:56;;;;;;;;;;;23.10;99.90;;;;;;5061498;28;19925;-69
2023/05/08 09:59:25;;;;;;;;;;;23.50;99.90;;;;;;5060632;28;19924;-69
2023/05/08 10:01:53;;;;;;;;;;;23.90;99.90;;;;;;5069115;28;19935;-69
2023/05/08 10:04:31;;;;;;;;;;;23.70;99.90;;;;;;5063088;28;19924;-69
2023/05/08 10:06:58;;;;;;;;;;;23.60;99.90;;;;;;5083488;28;19936;-69
2023/05/08 10:09:25;;;;;;;;;;;23.40;99.90;;;;;;5071870;28;19925;-69
2023/05/08 10:11:53;;;;;;;;;;;23.20;99.90;;;;;;5068813;28;19928;-68
2023/05/08 10:14:20;;;;;;;;;;;22.90;99.90;;;;;;5063956;28;19925;-68
2023/05/08 10:16:48;;;;;;;;;;;22.90;99.90;;;;;;5067392;28;19974;-68
2023/05/08 10:19:17;;;;;;;;;;;23.00;99.90;;;;;;5065854;28;20019;-68
2023/05/08 10:21:46;;;;;;;;;;;23.20;99.90;;;;;;5069242;28;19931;-68
2023/05/08 10:24:14;;;;;;;;;;;23.20;99.90;;;;;;5055658;28;19924;-68
2023/05/08 10:26:42;;;;;;;;;;;23.50;99.90;;;;;;5058391;28;20023;-70
2023/05/08 10:29:12;;;;;;;;;;;23.60;99.90;;;;;;5067890;28;19968;-68
2023/05/08 10:31:40;;;;;;;;;;;23.90;99.90;;;;;;5075466;28;19975;-69
2023/05/08 10:34:08;;;;;;;;;;;24.10;99.90;;;;;;5066762;28;19967;-68
2023/05/08 10:36:37;;;;;;;;;;;24.40;99.90;;;;;;5052715;28;19933;-69
2023/05/08 10:39:05;;;;;;;;;;;24.40;99.90;;;;;;5068442;28;19970;-69
2023/05/08 10:41:31;;;;;;;;;;;24.50;99.90;;;;;;5075159;28;20399;-68
2023/05/08 10:43:59;;;;;;;;;;;24.40;99.90;;;;;;5065948;28;19952;-68
2023/05/08 10:46:36;;;;;;;;;;;24.10;99.90;;;;;;5061961;28;19924;-69
2023/05/08 10:49:07;;;;;;;;;;;24.20;99.90;;;;;;5068721;28;20652;-68
2023/05/08 10:51:38;;;;;;;;;;;24.10;99.90;;;;;;5069117;28;20471;-68
2023/05/08 10:54:08;;;;;;;;;;;24.00;99.90;;;;;;5064785;28;19971;-68
2023/05/08 10:56:37;;;;;;;;;;;23.80;99.90;;;;;;5055138;28;20424;-68
2023/05/08 10:59:05;;;;;;;;;;;23.60;99.90;;;;;;5070169;28;19924;-68
2023/05/08 11:01:32;;;;;;;;;;;23.20;99.90;;;;;;5066242;28;19933;-69
2023/05/08 11:03:59;;;;;;;;;;;22.90;99.90;;;;;;5068874;28;19924;-68
2023/05/08 11:06:45;;;;;;;;;;;22.60;99.90;;;;;;5060827;28;20331;-68
2023/05/08 11:09:19;;;;;;;;;;;22.70;99.90;;;;;;5060565;28;19932;-68
2023/05/08 11:11:50;;;;;;;;;;;22.60;99.90;;;;;;5083732;28;19924;-69
2023/05/08 11:14:18;;;;;;;;;;;22.60;99.90;;;;;;5065983;28;19948;-69
2023/05/08 11:17:03;;;;;;;;;;;22.40;99.90;;;;;;5064552;28;20431;-68
2023/05/08 11:19:30;;;;;;;;;;;22.30;99.90;;;;;;5072270;28;19924;-69
2023/05/08 11:22:13;;;;;;;;;;;22.20;99.90;;;;;;5065842;28;19924;-70
2023/05/08 11:24:47;;;;;;;;;;;22.10;99.90;;;;;;5066006;28;19970;-69
2023/05/08 11:27:14;;;;;;;;;;;21.90;99.90;;;;;;5062574;28;20327;-69
2023/05/08 11:29:41;;;;;;;;;;;21.70;99.90;;;;;;5067402;28;19954;-69
2023/05/08 11:32:08;;;;;;;;;;;21.40;99.90;;;;;;5069720;28;20019;-70
2023/05/08 11:34:48;;;;;;;;;;;21.30;99.90;;;;;;5071268;28;19932;-69
2023/05/08 11:37:18;;;;;;;;;;;21.20;99.90;;;;;;5057554;28;19924;-69
2023/05/08 11:39:47;;;;;;;;;;;20.90;99.90;;;;;;5063310;28;19925;-69
2023/05/08 11:42:32;;;;;;;;;;;20.70;99.90;;;;;;5069772;28;20407;-68
2023/05/08 11:45:02;;;;;;;;;;;20.70;99.90;;;;;;5069297;28;19925;-69
2023/05/08 11:47:32;;;;;;;;;;;20.60;99.90;;;;;;5069859;28;19925;-69
2023/05/08 11:49:59;;;;;;;;;;;20.50;99.90;;;;;;5067910;28;19924;-69
2023/05/08 11:52:26;;;;;;;;;;;20.30;99.90;;;;;;5063272;28;19928;-69
2023/05/08 11:54:54;;;;;;;;;;;20.00;99.90;;;;;;5060943;28;19982;-71
2023/05/08 11:57:21;;;;;;;;;;;19.90;99.90;;;;;;5064884;28;19925;-69
2023/05/08 11:59:49;;;;;;;;;;;19.70;99.90;;;;;;5066223;28;19925;-69
2023/05/08 12:02:16;;;;;;;;;;;19.60;99.90;;;;;;5058337;28;19930;-69
2023/05/08 12:04:44;;;;;;;;;;;19.40;99.90;;;;;;5063195;28;19985;-68
2023/05/08 12:07:11;;;;;;;;;;;19.50;99.90;;;;;;5069427;28;19924;-68
2023/05/08 12:09:37;;;;;;;;;;;19.40;99.90;;;;;;5081301;28;20020;-68
2023/05/08 12:12:06;;;;;;;;;;;19.40;99.90;;;;;;5069888;28;19929;-69
2023/05/08 12:14:34;;;;;;;;;;;19.20;99.90;;;;;;5072532;28;20398;-69
2023/05/08 12:17:01;;;;;;;;;;;19.00;99.90;;;;;;5060570;28;20288;-68
2023/05/08 12:19:28;;;;;;;;;;;18.80;99.90;;;;;;5077650;28;19928;-69
2023/05/08 12:21:56;;;;;;;;;;;18.70;99.90;;;;;;5059584;28;19932;-69
2023/05/08 12:24:25;;;;;;;;;;;18.60;99.90;;;;;;5084064;28;19990;-69
2023/05/08 12:26:53;;;;;;;;;;;18.60;99.90;;;;;;5066692;28;19931;-69
2023/05/08 12:29:21;;;;;;;;;;;18.70;99.90;;;;;;5060005;28;19924;-69
2023/05/08 12:31:48;;;;;;;;;;;18.80;99.90;;;;;;5063015;28;19925;-70
2023/05/08 12:34:15;;;;;;;;;;;19.00;99.90;;;;;;5066350;28;19928;-69
2023/05/08 12:36:42;;;;;;;;;;;19.10;99.90;;;;;;5068430;28;20365;-69
2023/05/08 12:39:11;;;;;;;;;;;19.10;99.90;;;;;;5080057;28;19925;-69
2023/05/08 12:41:41;;;;;;;;;;;19.20;99.90;;;;;;5060744;28;19931;-69
2023/05/08 12:44:08;;;;;;;;;;;;;;;;;;5064896;28;20304;-69
2023/05/08 12:46:37;;;;;;;;;;;19.40;99.90;;;;;;5058433;28;19932;-69
2023/05/08 12:49:06;;;;;;;;;;;;;;;;;;5060685;28;19933;-70
2023/05/08 12:51:33;;;;;;;;;;;19.70;99.90;;;;;;5067293;28;19936;-69
2023/05/08 12:54:00;;;;;;;;;;;19.80;99.90;;;;;;5063090;28;20365;-69
2023/05/08 12:56:27;;;;;;;;;;;19.90;99.90;;;;;;5060791;28;19983;-69
2023/05/08 12:58:58;;;;;;;;;;;20.00;99.90;;;;;;5063526;28;19928;-69
2023/05/08 13:01:25;;;;;;;;;;;19.90;99.90;;;;;;5081300;28;19924;-69
2023/05/08 13:03:53;;;;;;;;;;;20.00;99.90;;;;;;5066926;28;19978;-69
2023/05/08 13:06:20;;;;;;;;;;;20.00;99.90;;;;;;5069353;28;19928;-70
2023/05/08 13:08:52;;;;;;;;;;;19.80;99.90;;;;;;5060267;28;20010;-69
2023/05/08 13:11:27;;;;;;;;;;;19.70;99.90;;;;;;5065756;28;20481;-69
2023/05/08 13:13:54;;;;;;;;;;;19.70;99.90;;;;;;5065990;28;19986;-69
2023/05/08 13:16:21;;;;;;;;;;;20.00;99.90;;;;;;5068654;28;20383;-70
2023/05/08 13:18:48;;;;;;;;;;;;;;;;;;5062610;28;19928;-69
2023/05/08 13:21:15;;;;;;;;;;;;;;;;;;5064819;28;19924;-69
2023/05/08 13:23:42;;;;;;;;;;;;;;;;;;5072301;28;20331;-69
2023/05/08 13:26:10;;;;;;;;;;;20.80;99.90;;;;;;5067408;28;20023;-69
2023/05/08 13:28:39;;;;;;;;;;;21.00;99.90;;;;;;5065336;28;20449;-68
2023/05/08 13:31:06;;;;;;;;;;;21.40;99.90;;;;;;5077752;28;20312;-69
2023/05/08 13:33:33;;;;;;;;;;;;;;;;;;5057958;28;19932;-69
2023/05/08 13:36:00;;;;;;;;;;;23.00;99.90;;;;;;5062405;28;19928;-69
2023/05/08 13:38:26;;;;;;;;;;;24.70;99.90;;;;;;5058786;28;19924;-69
2023/05/08 13:40:53;;;;;;;;;;;26.10;99.90;;;;;;5069492;28;19978;-68
2023/05/08 13:43:21;;;;;;;;;;;27.50;99.90;;;;;;5058539;28;20733;-70
2023/05/08 13:45:48;;;;;;;;;;;28.30;99.90;;;;;;5062858;28;20001;-69
2023/05/08 13:48:15;;;;;;;;;;;29.40;99.90;;;;;;5067799;28;19932;-69
2023/05/08 13:50:41;;;;;;;;;;;30.50;99.90;;;;;;5069093;28;20027;-70
2023/05/08 13:53:08;;;;;;;;;;;30.90;99.90;;;;;;5073547;28;20399;-69
2023/05/08 13:55:35;;;;;;;;;;;31.70;99.90;;;;;;5058899;28;19932;-70
2023/05/08 13:58:02;;;;;;;;;;;31.40;99.90;;;;;;5084385;28;20040;-68
2023/05/08 14:00:29;;;;;;;;;;;;;;;;;;5060369;28;19948;-67
2023/05/08 14:02:56;;;;;;;;;;;;;;;;;;5064907;28;20565;-69
2023/05/08 14:05:24;;;;;;;;;;;29.80;99.90;;;;;;5054438;28;19999;-70
2023/05/08 14:07:51;;;;;;;;;;;28.90;99.90;;;;;;5069259;28;19954;-68
2023/05/08 14:10:17;;;;;;;;;;;27.90;99.90;;;;;;5068012;28;20411;-69
2023/05/08 14:12:45;;;;;;;;;;;26.60;99.90;;;;;;5065208;28;19948;-68
2023/05/08 14:15:11;;;;;;;;;;;26.20;99.90;;;;;;5065593;28;19931;-69
2023/05/08 14:17:38;;;;;;;;;;;25.30;99.90;;;;;;5067769;28;19967;-69
2023/05/08 14:20:05;;;;;;;;;;;25.10;99.90;;;;;;5059068;28;20418;-69
2023/05/08 14:22:33;;;;;;;;;;;25.10;99.90;;;;;;5064806;28;19939;-69
2023/05/08 14:25:00;;;;;;;;;;;25.10;99.90;;;;;;5065796;28;20028;-69
2023/05/08 14:27:26;;;;;;;;;;;24.90;99.90;;;;;;5066968;28;20026;-69